Time,TemperatureF,DewpointF,PressureIn,WindDirection,WindDirectionDegrees,WindSpeedMPH,WindSpeedGustMPH,Humidity,HourlyPrecipIn,Conditions,Clouds,dailyrainin,SolarRadiationWatts/m^2,SoftwareType,DateUTC
2013-02-08 00:00:00,34.7,30.0,30.17,WNW,295,2.0,4.0,80,0.00,,,0.00,0.0,meteohub,2013-02-08 05:00:00,
2013-02-08 00:02:00,34.7,30.4,30.17,WNW,295,2.0,4.0,81,0.00,,,0.00,0.0,meteohub,2013-02-08 05:02:00,
2013-02-08 00:03:00,34.5,30.2,30.17,WNW,295,1.0,4.0,81,0.00,,,0.00,0.0,meteohub,2013-02-08 05:03:00,
2013-02-08 00:09:00,34.2,29.8,30.17,WNW,295,2.0,3.0,81,0.00,,,0.00,0.0,meteohub,2013-02-08 05:09:00,
2013-02-08 00:12:00,34.0,30.0,30.17,WSW,250,1.0,2.0,82,0.00,,,0.00,0.0,meteohub,2013-02-08 05:12:00,
2013-02-08 00:19:00,33.8,30.0,30.17,NE,54,0.0,5.0,83,0.00,,,0.00,0.0,meteohub,2013-02-08 05:19:00,
2013-02-08 00:25:00,33.6,30.2,30.16,NE,54,1.0,5.0,84,0.00,,,0.00,0.0,meteohub,2013-02-08 05:25:00,
2013-02-08 00:31:00,33.3,30.0,30.16,NNE,28,0.0,3.0,85,0.00,,,0.00,0.0,meteohub,2013-02-08 05:31:00,
2013-02-08 00:37:00,33.3,30.0,30.16,North,0,1.0,3.0,85,0.00,,,0.00,0.0,meteohub,2013-02-08 05:37:00,
2013-02-08 00:42:00,33.1,29.8,30.16,North,5,0.0,4.0,85,0.00,,,0.00,0.0,meteohub,2013-02-08 05:42:00,
2013-02-08 00:47:00,33.1,30.2,30.15,NE,50,0.0,4.0,86,0.00,,,0.00,0.0,meteohub,2013-02-08 05:47:00,
2013-02-08 00:52:00,33.1,30.2,30.15,NNW,348,0.0,4.0,86,0.00,,,0.00,0.0,meteohub,2013-02-08 05:52:00,
2013-02-08 00:58:00,33.1,30.4,30.15,NNW,331,0.0,2.0,87,0.00,,,0.00,0.0,meteohub,2013-02-08 05:58:00,
2013-02-08 01:04:00,32.9,30.2,30.14,WNW,294,0.0,5.0,87,0.00,,,0.00,0.0,meteohub,2013-02-08 06:04:00,
2013-02-08 01:10:00,32.9,30.2,30.14,North,0,2.0,7.0,87,0.00,,,0.00,0.0,meteohub,2013-02-08 06:10:00,
2013-02-08 01:16:00,32.9,30.2,30.14,NW,317,2.0,7.0,87,0.00,,,0.00,0.0,meteohub,2013-02-08 06:16:00,
2013-02-08 01:22:00,32.9,30.2,30.14,NW,305,1.0,3.0,87,0.00,,,0.00,0.0,meteohub,2013-02-08 06:22:00,
2013-02-08 01:27:00,32.9,30.6,30.13,WNW,290,1.0,4.0,88,0.00,,,0.00,0.0,meteohub,2013-02-08 06:27:00,
2013-02-08 01:32:00,32.9,30.6,30.13,NW,323,1.0,6.0,88,0.00,,,0.00,0.0,meteohub,2013-02-08 06:32:00,
2013-02-08 01:37:00,32.7,30.4,30.14,NW,312,2.0,6.0,88,0.00,,,0.00,0.0,meteohub,2013-02-08 06:37:00,
2013-02-08 01:42:00,32.7,30.4,30.13,NW,306,1.0,4.0,88,0.00,,,0.00,0.0,meteohub,2013-02-08 06:42:00,
2013-02-08 01:47:00,32.7,30.4,30.13,WNW,285,2.0,4.0,88,0.00,,,0.00,0.0,meteohub,2013-02-08 06:47:00,
2013-02-08 01:52:00,32.7,30.4,30.12,WNW,286,0.0,4.0,88,0.00,,,0.00,0.0,meteohub,2013-02-08 06:52:00,
2013-02-08 01:57:00,32.7,30.4,30.12,NNE,32,1.0,6.0,88,0.00,,,0.00,0.0,meteohub,2013-02-08 06:57:00,
2013-02-08 02:02:00,32.7,30.4,30.12,NNW,345,0.0,6.0,88,0.00,,,0.00,0.0,meteohub,2013-02-08 07:02:00,
2013-02-08 02:07:00,32.7,30.4,30.12,NW,315,0.0,3.0,88,0.00,,,0.00,0.0,meteohub,2013-02-08 07:07:00,
2013-02-08 02:12:00,32.7,30.4,30.12,WNW,296,0.0,4.0,88,0.00,,,0.00,0.0,meteohub,2013-02-08 07:12:00,
2013-02-08 02:17:00,32.7,30.4,30.12,ENE,57,1.0,4.0,88,0.00,,,0.00,0.0,meteohub,2013-02-08 07:17:00,
2013-02-08 02:22:00,32.7,30.7,30.11,NW,308,2.0,3.0,89,0.00,,,0.00,0.0,meteohub,2013-02-08 07:22:00,
2013-02-08 02:27:00,32.7,30.7,30.11,WNW,303,0.0,3.0,89,0.00,,,0.00,0.0,meteohub,2013-02-08 07:27:00,
2013-02-08 02:32:00,32.7,30.7,30.11,North,0,0.0,5.0,89,0.00,,,0.00,0.0,meteohub,2013-02-08 07:32:00,
2013-02-08 02:37:00,32.7,30.7,30.10,WNW,297,3.0,5.0,89,0.00,,,0.00,0.0,meteohub,2013-02-08 07:37:00,
2013-02-08 02:42:00,32.7,30.7,30.10,WNW,297,1.0,5.0,89,0.00,,,0.00,0.0,meteohub,2013-02-08 07:42:00,
2013-02-08 02:47:00,32.7,30.7,30.10,North,5,0.0,4.0,89,0.00,,,0.00,0.0,meteohub,2013-02-08 07:47:00,
2013-02-08 02:52:00,32.7,30.7,30.09,NW,304,1.0,5.0,89,0.00,,,0.00,0.0,meteohub,2013-02-08 07:52:00,
2013-02-08 02:57:00,32.7,30.7,30.09,WNW,302,1.0,5.0,89,0.00,,,0.00,0.0,meteohub,2013-02-08 07:57:00,
2013-02-08 03:02:00,32.7,30.7,30.09,NW,321,2.0,5.0,89,0.00,,,0.00,0.0,meteohub,2013-02-08 08:02:00,
2013-02-08 03:07:00,32.7,30.7,30.08,NW,323,0.0,5.0,89,0.00,,,0.00,0.0,meteohub,2013-02-08 08:07:00,
2013-02-08 03:12:00,32.7,30.7,30.08,NNE,26,0.0,4.0,89,0.00,,,0.00,0.0,meteohub,2013-02-08 08:12:00,
2013-02-08 03:17:00,32.7,30.7,30.07,NNW,328,2.0,4.0,89,0.00,,,0.00,0.0,meteohub,2013-02-08 08:17:00,
2013-02-08 03:22:00,32.7,30.7,30.07,NNW,343,3.0,3.0,89,0.00,,,0.00,0.0,meteohub,2013-02-08 08:22:00,
2013-02-08 06:31:00,32.9,31.1,29.99,North,355,0.0,5.0,90,0.00,,,0.00,0.0,meteohub,2013-02-08 11:31:00,
2013-02-08 06:37:00,33.1,31.3,29.99,NNW,342,0.0,5.0,90,0.00,,,0.00,0.0,meteohub,2013-02-08 11:37:00,
2013-02-08 06:42:00,33.1,31.3,29.98,North,355,0.0,5.0,90,0.00,,,0.00,0.0,meteohub,2013-02-08 11:42:00,
2013-02-08 06:47:00,33.1,31.3,29.98,North,5,0.0,4.0,90,0.00,,,0.00,0.0,meteohub,2013-02-08 11:47:00,
2013-02-08 06:52:00,33.1,31.3,29.98,North,350,2.0,4.0,90,0.00,,,0.00,0.0,meteohub,2013-02-08 11:52:00,
2013-02-08 06:57:00,33.1,31.3,29.97,NW,323,2.0,4.0,90,0.00,,,0.00,0.0,meteohub,2013-02-08 11:57:00,
2013-02-08 07:02:00,33.1,31.3,29.97,NE,39,0.0,4.0,90,0.00,,,0.00,0.0,meteohub,2013-02-08 12:02:00,
2013-02-08 07:07:00,33.1,30.9,29.97,North,5,0.0,4.0,89,0.00,,,0.00,0.0,meteohub,2013-02-08 12:07:00,
2013-02-08 07:12:00,33.1,30.9,29.97,NNE,13,0.0,3.0,89,0.00,,,0.00,0.0,meteohub,2013-02-08 12:12:00,
2013-02-08 07:17:00,33.3,31.1,29.97,NE,47,0.0,3.0,89,0.00,,,0.00,0.0,meteohub,2013-02-08 12:17:00,
2013-02-08 07:22:00,33.3,31.5,29.97,NE,36,0.0,4.0,90,0.00,,,0.00,0.0,meteohub,2013-02-08 12:22:00,
2013-02-08 07:27:00,33.3,31.5,29.96,NE,48,0.0,4.0,90,0.00,,,0.00,0.0,meteohub,2013-02-08 12:27:00,
2013-02-08 07:32:00,33.3,31.5,29.96,NE,44,0.0,1.0,90,0.00,,,0.00,0.0,meteohub,2013-02-08 12:32:00,
2013-02-08 07:37:00,33.3,31.1,29.96,NE,49,0.0,1.0,89,0.00,,,0.00,0.0,meteohub,2013-02-08 12:37:00,
2013-02-08 07:44:00,33.4,31.6,29.96,NNE,13,1.0,1.0,90,0.00,,,0.00,0.0,meteohub,2013-02-08 12:44:00,
2013-02-08 07:50:00,33.4,31.6,29.95,ENE,57,0.0,1.0,90,0.00,,,0.00,7.0,meteohub,2013-02-08 12:50:00,
2013-02-08 07:56:00,33.6,31.5,29.95,NE,42,0.0,2.0,89,0.00,,,0.00,18.0,meteohub,2013-02-08 12:56:00,
2013-02-08 08:02:00,33.6,31.5,29.95,North,355,2.0,4.0,89,0.00,,,0.00,21.0,meteohub,2013-02-08 13:02:00,
2013-02-08 08:07:00,33.8,31.6,29.94,NE,49,2.0,4.0,89,0.00,,,0.00,25.0,meteohub,2013-02-08 13:07:00,
2013-02-08 08:12:00,33.8,32.0,29.94,ENE,68,3.0,4.0,90,0.00,,,0.00,28.0,meteohub,2013-02-08 13:12:00,
2013-02-08 08:17:00,34.0,32.2,29.94,North,5,4.0,4.0,90,0.00,,,0.00,28.0,meteohub,2013-02-08 13:17:00,
2013-02-08 08:22:00,34.2,32.0,29.93,NE,46,1.0,7.0,89,0.00,,,0.00,28.0,meteohub,2013-02-08 13:22:00,
2013-02-08 08:27:00,34.2,32.0,29.93,NW,316,4.0,7.0,89,0.00,,,0.00,35.0,meteohub,2013-02-08 13:27:00,
2013-02-08 08:33:00,34.5,32.4,29.93,NNE,28,3.0,7.0,89,0.00,,,0.00,39.0,meteohub,2013-02-08 13:33:00,
2013-02-08 08:39:00,34.7,32.5,29.93,NNE,29,6.0,6.0,89,0.00,,,0.00,49.0,meteohub,2013-02-08 13:39:00,
2013-02-08 08:45:00,34.9,32.7,29.92,NNE,29,2.0,6.0,89,0.00,,,0.00,47.0,meteohub,2013-02-08 13:45:00,
2013-02-08 08:51:00,35.1,32.9,29.92,NNE,26,1.0,6.0,89,0.00,,,0.00,60.0,meteohub,2013-02-08 13:51:00,
2013-02-08 08:57:00,35.4,33.3,29.92,WNW,300,1.0,6.0,89,0.00,,,0.00,86.0,meteohub,2013-02-08 13:57:00,
2013-02-08 09:02:00,35.6,33.3,29.92,West,279,1.0,6.0,88,0.00,,,0.00,128.0,meteohub,2013-02-08 14:02:00,
2013-02-08 09:07:00,36.0,33.6,29.91,West,274,1.0,4.0,88,0.00,,,0.00,158.0,meteohub,2013-02-08 14:07:00,
2013-02-08 09:12:00,36.1,33.8,29.91,West,265,2.0,5.0,88,0.01,,,0.01,190.0,meteohub,2013-02-08 14:12:00,
2013-02-08 09:17:00,36.5,34.2,29.91,WNW,288,2.0,5.0,88,0.01,,,0.01,183.0,meteohub,2013-02-08 14:17:00,
2013-02-08 09:22:00,36.7,34.0,29.90,WNW,291,0.0,5.0,87,0.01,,,0.01,178.0,meteohub,2013-02-08 14:22:00,
2013-02-08 09:27:00,37.0,34.3,29.90,WNW,296,0.0,5.0,87,0.02,,,0.02,193.0,meteohub,2013-02-08 14:27:00,
2013-02-08 09:34:00,37.4,34.7,29.90,North,5,2.0,5.0,87,0.03,,,0.03,172.0,meteohub,2013-02-08 14:34:00,
2013-02-08 09:40:00,37.6,34.9,29.90,WNW,291,3.0,5.0,87,0.04,,,0.04,174.0,meteohub,2013-02-08 14:40:00,
2013-02-08 09:46:00,37.8,34.9,29.90,WNW,300,2.0,5.0,86,0.05,,,0.05,172.0,meteohub,2013-02-08 14:46:00,
2013-02-08 09:52:00,37.8,34.9,29.90,WNW,286,2.0,4.0,86,0.06,,,0.06,155.0,meteohub,2013-02-08 14:52:00,
2013-02-08 09:57:00,37.9,35.1,29.90,West,277,2.0,5.0,86,0.07,,,0.07,151.0,meteohub,2013-02-08 14:57:00,
2013-02-08 10:02:00,38.1,35.2,29.90,WNW,287,0.0,5.0,86,0.08,,,0.08,162.0,meteohub,2013-02-08 15:02:00,
2013-02-08 10:07:00,38.1,35.2,29.90,NNW,340,2.0,5.0,86,0.07,,,0.08,179.0,meteohub,2013-02-08 15:07:00,
2013-02-08 10:12:00,38.3,35.4,29.90,West,272,1.0,5.0,86,0.08,,,0.09,181.0,meteohub,2013-02-08 15:12:00,
2013-02-08 10:17:00,38.5,35.2,29.89,West,276,2.0,4.0,85,0.09,,,0.09,202.0,meteohub,2013-02-08 15:17:00,
2013-02-08 10:22:00,38.7,35.4,29.90,West,273,3.0,5.0,85,0.08,,,0.10,213.0,meteohub,2013-02-08 15:22:00,
2013-02-08 10:28:00,39.0,35.8,29.89,West,281,0.0,5.0,85,0.08,,,0.11,244.0,meteohub,2013-02-08 15:28:00,
2013-02-08 10:34:00,39.2,36.0,29.90,WNW,282,0.0,5.0,85,0.08,,,0.11,301.0,meteohub,2013-02-08 15:34:00,
2013-02-08 10:40:00,39.6,36.3,29.89,WNW,282,0.0,4.0,85,0.08,,,0.13,308.0,meteohub,2013-02-08 15:40:00,
2013-02-08 10:46:00,40.3,37.0,29.89,West,279,1.0,4.0,85,0.07,,,0.13,798.0,meteohub,2013-02-08 15:46:00,
2013-02-08 10:52:00,40.8,37.0,29.89,West,270,3.0,5.0,83,0.08,,,0.15,387.0,meteohub,2013-02-08 15:52:00,
2013-02-08 10:57:00,41.2,37.2,29.89,NW,313,2.0,6.0,83,0.09,,,0.16,322.0,meteohub,2013-02-08 15:57:00,
2013-02-08 11:02:00,41.4,37.2,29.89,NW,308,0.0,6.0,82,0.08,,,0.16,332.0,meteohub,2013-02-08 16:02:00,
2013-02-08 11:07:00,41.5,37.4,29.89,North,5,0.0,5.0,82,0.08,,,0.17,297.0,meteohub,2013-02-08 16:07:00,
2013-02-08 11:12:00,41.7,37.6,29.88,NW,320,0.0,5.0,82,0.09,,,0.18,318.0,meteohub,2013-02-08 16:12:00,
2013-02-08 11:17:00,42.1,37.9,29.88,NW,317,0.0,5.0,82,0.09,,,0.19,431.0,meteohub,2013-02-08 16:17:00,
2013-02-08 11:22:00,42.6,38.1,29.88,West,269,0.0,5.0,81,0.08,,,0.19,508.0,meteohub,2013-02-08 16:22:00,
2013-02-08 11:27:00,42.8,37.9,29.88,West,274,0.0,5.0,80,0.09,,,0.20,264.0,meteohub,2013-02-08 16:27:00,
2013-02-08 11:32:00,43.0,37.9,29.88,West,274,0.0,5.0,79,0.09,,,0.21,188.0,meteohub,2013-02-08 16:32:00,
2013-02-08 11:37:00,43.0,37.9,29.87,West,274,1.0,3.0,79,0.08,,,0.21,195.0,meteohub,2013-02-08 16:37:00,
2013-02-08 11:42:00,42.8,37.4,29.87,West,274,0.0,2.0,78,0.08,,,0.21,213.0,meteohub,2013-02-08 16:42:00,
2013-02-08 11:47:00,42.6,37.2,29.87,West,274,0.0,2.0,78,0.08,,,0.22,178.0,meteohub,2013-02-08 16:47:00,
2013-02-08 11:52:00,42.6,37.8,29.86,West,274,0.0,2.0,80,0.07,,,0.22,294.0,meteohub,2013-02-08 16:52:00,
2013-02-08 11:57:00,42.8,37.8,29.86,West,274,1.0,0.0,79,0.06,,,0.22,323.0,meteohub,2013-02-08 16:57:00,
2013-02-08 12:02:00,43.0,37.6,29.86,WNW,292,0.0,3.0,78,0.06,,,0.23,287.0,meteohub,2013-02-08 17:02:00,
2013-02-08 12:07:00,43.3,37.9,29.85,WNW,292,0.0,3.0,78,0.05,,,0.23,260.0,meteohub,2013-02-08 17:07:00,
2013-02-08 12:12:00,43.5,38.1,29.85,WNW,292,0.0,3.0,78,0.06,,,0.24,229.0,meteohub,2013-02-08 17:12:00,
2013-02-08 12:17:00,43.7,38.5,29.85,WNW,292,0.0,2.0,79,0.06,,,0.25,230.0,meteohub,2013-02-08 17:17:00,
2013-02-08 12:22:00,43.9,38.5,29.85,WNW,292,0.0,3.0,78,0.05,,,0.25,174.0,meteohub,2013-02-08 17:22:00,
2013-02-08 12:27:00,43.9,38.1,29.84,WNW,292,0.0,3.0,77,0.04,,,0.25,181.0,meteohub,2013-02-08 17:27:00,
2013-02-08 12:32:00,43.9,37.8,29.84,WNW,292,2.0,3.0,76,0.05,,,0.26,104.0,meteohub,2013-02-08 17:32:00,
2013-02-08 12:39:00,43.7,37.9,29.84,WNW,292,2.0,2.0,77,0.05,,,0.26,155.0,meteohub,2013-02-08 17:39:00,
2013-02-08 12:45:00,43.5,37.4,29.84,WNW,292,2.0,3.0,76,0.05,,,0.27,171.0,meteohub,2013-02-08 17:45:00,
2013-02-08 12:51:00,43.7,37.9,29.83,WNW,292,0.0,3.0,77,0.05,,,0.27,316.0,meteohub,2013-02-08 17:51:00,
2013-02-08 12:57:00,43.9,38.1,29.83,WNW,292,1.0,4.0,77,0.05,,,0.27,323.0,meteohub,2013-02-08 17:57:00,
2013-02-08 13:02:00,44.4,38.7,29.82,WNW,292,1.0,4.0,77,0.04,,,0.27,301.0,meteohub,2013-02-08 18:02:00,
2013-02-08 13:07:00,44.6,38.1,29.82,WNW,292,2.0,4.0,75,0.04,,,0.28,427.0,meteohub,2013-02-08 18:07:00,
2013-02-08 13:12:00,44.6,37.6,29.82,WNW,292,0.0,3.0,73,0.04,,,0.28,350.0,meteohub,2013-02-08 18:12:00,
2013-02-08 13:17:00,44.8,37.9,29.81,WNW,292,0.0,3.0,74,0.03,,,0.28,459.0,meteohub,2013-02-08 18:17:00,
2013-02-08 13:22:00,45.3,38.5,29.81,WNW,292,0.0,3.0,74,0.04,,,0.29,220.0,meteohub,2013-02-08 18:22:00,
2013-02-08 13:28:00,45.5,38.3,29.80,WNW,292,0.0,2.0,73,0.03,,,0.29,227.0,meteohub,2013-02-08 18:28:00,
2013-02-08 13:34:00,45.7,38.5,29.80,WNW,292,0.0,3.0,73,0.03,,,0.29,427.0,meteohub,2013-02-08 18:34:00,
2013-02-08 13:40:00,46.4,39.2,29.80,NE,44,1.0,3.0,73,0.02,,,0.29,775.0,meteohub,2013-02-08 18:40:00,
2013-02-08 13:46:00,47.3,39.7,29.80,NE,41,0.0,4.0,72,0.02,,,0.29,696.0,meteohub,2013-02-08 18:46:00,
2013-02-08 13:52:00,47.7,40.1,29.80,NE,43,0.0,4.0,72,0.02,,,0.29,661.0,meteohub,2013-02-08 18:52:00,
2013-02-08 13:57:00,48.4,40.5,29.80,ESE,105,4.0,5.0,71,0.02,,,0.29,643.0,meteohub,2013-02-08 18:57:00,
2013-02-08 14:04:00,48.7,40.1,29.80,SE,126,1.0,6.0,69,0.02,,,0.29,773.0,meteohub,2013-02-08 19:04:00,
2013-02-08 14:10:00,49.1,40.5,29.80,West,281,2.0,6.0,69,0.01,,,0.29,383.0,meteohub,2013-02-08 19:10:00,
2013-02-08 14:17:00,49.8,42.6,29.80,West,263,0.0,6.0,73,0.01,,,0.29,269.0,meteohub,2013-02-08 19:17:00,
2013-02-08 14:22:00,50.2,41.5,29.79,West,262,2.0,6.0,69,0.00,,,0.29,722.0,meteohub,2013-02-08 19:22:00,
2013-02-08 14:27:00,50.4,41.4,29.79,West,277,2.0,4.0,68,0.00,,,0.29,707.0,meteohub,2013-02-08 19:27:00,
2013-02-08 14:32:00,50.7,41.7,29.79,NNW,329,0.0,5.0,68,0.00,,,0.29,527.0,meteohub,2013-02-08 19:32:00,
2013-02-08 14:37:00,51.1,42.1,29.78,SSW,200,1.0,5.0,68,0.00,,,0.29,499.0,meteohub,2013-02-08 19:37:00,
2013-02-08 14:42:00,51.6,41.4,29.78,WSW,247,3.0,5.0,65,0.00,,,0.29,490.0,meteohub,2013-02-08 19:42:00,
2013-02-08 14:47:00,52.0,42.8,29.78,WSW,248,0.0,4.0,68,0.00,,,0.29,476.0,meteohub,2013-02-08 19:47:00,
2013-02-08 14:52:00,52.7,42.1,29.78,West,278,0.0,4.0,64,0.00,,,0.29,461.0,meteohub,2013-02-08 19:52:00,
2013-02-08 14:57:00,53.1,41.5,29.78,West,281,3.0,5.0,62,0.00,,,0.29,445.0,meteohub,2013-02-08 19:57:00,
2013-02-08 15:02:00,53.4,41.9,29.78,SW,219,3.0,5.0,62,0.00,,,0.29,431.0,meteohub,2013-02-08 20:02:00,
2013-02-08 15:07:00,53.4,41.9,29.78,NW,311,1.0,5.0,62,0.00,,,0.29,417.0,meteohub,2013-02-08 20:07:00,
2013-02-08 15:12:00,53.8,41.5,29.78,South,180,2.0,8.0,60,0.00,,,0.29,410.0,meteohub,2013-02-08 20:12:00,
2013-02-08 15:17:00,54.0,41.2,29.78,WNW,294,1.0,8.0,59,0.00,,,0.29,403.0,meteohub,2013-02-08 20:17:00,
2013-02-08 15:22:00,54.0,40.8,29.77,WNW,295,1.0,5.0,58,0.00,,,0.29,392.0,meteohub,2013-02-08 20:22:00,
2013-02-08 15:27:00,54.0,42.1,29.77,WNW,286,3.0,5.0,61,0.00,,,0.29,403.0,meteohub,2013-02-08 20:27:00,
2013-02-08 15:32:00,54.0,39.6,29.77,SW,232,4.0,4.0,55,0.00,,,0.29,401.0,meteohub,2013-02-08 20:32:00,
2013-02-08 15:37:00,54.0,39.9,29.77,West,277,4.0,12.0,56,0.00,,,0.29,387.0,meteohub,2013-02-08 20:37:00,
2013-02-08 15:42:00,54.3,39.9,29.77,WNW,300,4.0,13.0,55,0.00,,,0.29,410.0,meteohub,2013-02-08 20:42:00,
2013-02-08 15:47:00,54.5,39.6,29.78,West,280,3.0,13.0,54,0.00,,,0.29,367.0,meteohub,2013-02-08 20:47:00,
2013-02-08 15:52:00,54.5,39.0,29.77,West,278,4.0,13.0,53,0.00,,,0.29,325.0,meteohub,2013-02-08 20:52:00,
2013-02-08 15:57:00,54.5,38.7,29.78,WSW,240,5.0,10.0,52,0.00,,,0.29,113.0,meteohub,2013-02-08 20:57:00,
2013-02-08 16:02:00,54.0,37.6,29.78,WNW,294,6.0,11.0,51,0.00,,,0.29,93.0,meteohub,2013-02-08 21:02:00,
2013-02-08 16:07:00,53.6,37.4,29.78,West,271,5.0,14.0,51,0.00,,,0.29,102.0,meteohub,2013-02-08 21:07:00,
2013-02-08 16:12:00,53.4,37.6,29.78,WNW,292,4.0,14.0,52,0.00,,,0.29,158.0,meteohub,2013-02-08 21:12:00,
2013-02-08 16:18:00,53.4,37.6,29.79,West,263,1.0,14.0,52,0.00,,,0.29,83.0,meteohub,2013-02-08 21:18:00,
2013-02-08 16:24:00,53.2,37.9,29.79,West,279,7.0,11.0,53,0.00,,,0.29,120.0,meteohub,2013-02-08 21:24:00,
2013-02-08 16:30:00,53.1,37.8,29.79,WSW,255,3.0,14.0,53,0.00,,,0.29,95.0,meteohub,2013-02-08 21:30:00,
2013-02-08 16:36:00,52.7,37.0,29.80,WSW,253,11.0,16.0,52,0.00,,,0.29,90.0,meteohub,2013-02-08 21:36:00,
2013-02-08 16:42:00,52.7,37.4,29.80,West,263,4.0,16.0,53,0.00,,,0.29,86.0,meteohub,2013-02-08 21:42:00,
2013-02-08 16:47:00,52.5,36.9,29.81,WSW,256,2.0,16.0,52,0.00,,,0.29,76.0,meteohub,2013-02-08 21:47:00,
2013-02-08 16:52:00,52.5,37.2,29.81,West,264,2.0,16.0,53,0.00,,,0.29,51.0,meteohub,2013-02-08 21:52:00,
2013-02-08 16:57:00,52.3,37.0,29.81,NNW,329,11.0,15.0,53,0.00,,,0.29,44.0,meteohub,2013-02-08 21:57:00,
2013-02-08 17:02:00,52.0,35.4,29.81,WSW,240,0.0,11.0,50,0.00,,,0.29,39.0,meteohub,2013-02-08 22:02:00,
2013-02-08 17:07:00,51.8,34.7,29.82,NNW,344,1.0,11.0,49,0.00,,,0.29,42.0,meteohub,2013-02-08 22:07:00,
2013-02-08 17:12:00,51.3,33.8,29.83,NNW,327,5.0,13.0,48,0.00,,,0.29,30.0,meteohub,2013-02-08 22:12:00,
2013-02-08 17:17:00,50.9,33.8,29.83,WNW,288,1.0,13.0,49,0.00,,,0.29,23.0,meteohub,2013-02-08 22:17:00,
2013-02-08 17:22:00,50.4,33.4,29.84,SSW,200,0.0,13.0,49,0.00,,,0.29,19.0,meteohub,2013-02-08 22:22:00,
2013-02-08 17:27:00,49.8,32.4,29.84,SW,232,6.0,15.0,48,0.00,,,0.29,16.0,meteohub,2013-02-08 22:27:00,
2013-02-08 17:32:00,49.1,31.6,29.85,West,276,7.0,16.0,48,0.00,,,0.29,12.0,meteohub,2013-02-08 22:32:00,
2013-02-08 17:37:00,48.4,31.1,29.85,WNW,285,6.0,16.0,48,0.00,,,0.29,9.0,meteohub,2013-02-08 22:37:00,
2013-02-08 17:42:00,48.0,30.7,29.85,SE,140,1.0,16.0,48,0.00,,,0.29,5.0,meteohub,2013-02-08 22:42:00,
2013-02-08 17:47:00,47.5,30.2,29.86,South,171,4.0,14.0,48,0.00,,,0.29,0.0,meteohub,2013-02-08 22:47:00,
2013-02-08 17:52:00,47.1,29.8,29.86,WNW,282,5.0,11.0,48,0.00,,,0.29,0.0,meteohub,2013-02-08 22:52:00,
2013-02-08 17:57:00,46.8,29.5,29.87,NW,321,1.0,11.0,48,0.00,,,0.29,0.0,meteohub,2013-02-08 22:57:00,
2013-02-08 18:05:00,46.2,29.1,29.87,West,265,5.0,11.0,48,0.00,,,0.29,0.0,meteohub,2013-02-08 23:05:00,
2013-02-08 18:11:00,46.0,29.3,29.88,WNW,294,5.0,18.0,49,0.00,,,0.29,0.0,meteohub,2013-02-08 23:11:00,
2013-02-08 18:17:00,45.7,29.5,29.88,WNW,294,2.0,17.0,50,0.00,,,0.29,0.0,meteohub,2013-02-08 23:17:00,
2013-02-08 18:22:00,45.3,29.7,29.88,WNW,293,15.0,15.0,51,0.00,,,0.29,0.0,meteohub,2013-02-08 23:22:00,
2013-02-08 18:27:00,45.5,29.3,29.88,WNW,284,6.0,20.0,50,0.00,,,0.29,0.0,meteohub,2013-02-08 23:27:00,
2013-02-08 18:32:00,45.5,29.3,29.88,West,275,3.0,20.0,50,0.00,,,0.29,0.0,meteohub,2013-02-08 23:32:00,
2013-02-08 18:37:00,45.3,29.1,29.89,West,270,12.0,20.0,50,0.00,,,0.29,0.0,meteohub,2013-02-08 23:37:00,
2013-02-08 18:42:00,45.0,29.3,29.89,West,273,1.0,17.0,51,0.00,,,0.29,0.0,meteohub,2013-02-08 23:42:00,
2013-02-08 18:47:00,44.8,29.1,29.89,WSW,243,4.0,16.0,51,0.00,,,0.29,0.0,meteohub,2013-02-08 23:47:00,
2013-02-08 18:57:00,44.4,29.7,29.89,WSW,245,0.0,18.0,53,0.00,,,0.29,0.0,meteohub,2013-02-08 23:57:00,
2013-02-08 19:02:00,44.4,29.3,29.89,WNW,283,4.0,18.0,52,0.00,,,0.29,0.0,meteohub,2013-02-09 00:02:00,
2013-02-08 19:09:00,44.1,29.3,29.90,WSW,251,6.0,18.0,53,0.00,,,0.29,0.0,meteohub,2013-02-09 00:09:00,
2013-02-08 19:15:00,44.1,28.9,29.89,West,264,3.0,18.0,52,0.00,,,0.29,0.0,meteohub,2013-02-09 00:15:00,
2013-02-08 19:21:00,43.9,29.1,29.90,West,277,1.0,14.0,53,0.00,,,0.29,0.0,meteohub,2013-02-09 00:21:00,
2013-02-08 19:27:00,43.7,28.9,29.91,West,281,2.0,14.0,53,0.00,,,0.29,0.0,meteohub,2013-02-09 00:27:00,
2013-02-08 19:32:00,43.5,28.8,29.91,NW,306,3.0,11.0,53,0.00,,,0.29,0.0,meteohub,2013-02-09 00:32:00,
2013-02-08 19:37:00,43.5,28.8,29.91,West,271,3.0,11.0,53,0.00,,,0.29,0.0,meteohub,2013-02-09 00:37:00,
2013-02-08 19:42:00,43.3,28.8,29.91,West,278,1.0,10.0,53,0.00,,,0.29,0.0,meteohub,2013-02-09 00:42:00,
2013-02-08 19:47:00,43.2,28.9,29.92,NW,315,3.0,12.0,54,0.00,,,0.29,0.0,meteohub,2013-02-09 00:47:00,
2013-02-08 19:52:00,43.0,28.4,29.91,West,264,4.0,12.0,53,0.00,,,0.29,0.0,meteohub,2013-02-09 00:52:00,
2013-02-08 19:57:00,42.8,28.6,29.91,NW,325,3.0,12.0,54,0.00,,,0.29,0.0,meteohub,2013-02-09 00:57:00,
2013-02-08 20:02:00,42.8,28.2,29.92,WNW,283,2.0,16.0,53,0.00,,,0.29,0.0,meteohub,2013-02-09 01:02:00,
2013-02-08 20:07:00,42.8,28.2,29.92,NW,305,3.0,16.0,53,0.00,,,0.29,0.0,meteohub,2013-02-09 01:07:00,
2013-02-08 20:12:00,42.6,28.0,29.92,West,266,3.0,16.0,53,0.00,,,0.29,0.0,meteohub,2013-02-09 01:12:00,
2013-02-08 20:17:00,42.6,28.0,29.92,WNW,300,1.0,13.0,53,0.00,,,0.29,0.0,meteohub,2013-02-09 01:17:00,
2013-02-08 20:22:00,42.3,27.7,29.92,SW,232,5.0,10.0,53,0.00,,,0.29,0.0,meteohub,2013-02-09 01:22:00,
2013-02-08 20:27:00,42.1,27.9,29.93,NW,315,4.0,10.0,54,0.00,,,0.29,0.0,meteohub,2013-02-09 01:27:00,
2013-02-08 20:32:00,42.1,27.9,29.93,WNW,292,5.0,11.0,54,0.00,,,0.29,0.0,meteohub,2013-02-09 01:32:00,
2013-02-08 20:37:00,42.1,27.1,29.93,WNW,293,5.0,15.0,52,0.00,,,0.29,0.0,meteohub,2013-02-09 01:37:00,
2013-02-08 20:42:00,42.3,26.8,29.93,West,267,5.0,15.0,51,0.00,,,0.29,0.0,meteohub,2013-02-09 01:42:00,
2013-02-08 20:49:00,42.1,26.6,29.94,West,262,5.0,15.0,51,0.00,,,0.29,0.0,meteohub,2013-02-09 01:49:00,
2013-02-08 20:56:00,41.9,26.4,29.94,WNW,290,6.0,22.0,51,0.00,,,0.29,0.0,meteohub,2013-02-09 01:56:00,
2013-02-08 21:02:00,41.7,26.2,29.94,West,263,2.0,22.0,51,0.00,,,0.29,0.0,meteohub,2013-02-09 02:02:00,
2013-02-08 21:07:00,41.7,26.2,29.95,West,277,3.0,22.0,51,0.00,,,0.29,0.0,meteohub,2013-02-09 02:07:00,
2013-02-08 21:12:00,41.4,25.9,29.95,West,273,4.0,14.0,51,0.00,,,0.29,0.0,meteohub,2013-02-09 02:12:00,
2013-02-08 21:17:00,41.4,25.9,29.95,NNW,328,2.0,16.0,51,0.00,,,0.29,0.0,meteohub,2013-02-09 02:17:00,
2013-02-08 21:22:00,41.2,25.7,29.95,WNW,290,3.0,16.0,51,0.00,,,0.29,0.0,meteohub,2013-02-09 02:22:00,
2013-02-08 21:27:00,41.0,25.5,29.95,WNW,285,1.0,16.0,51,0.00,,,0.29,0.0,meteohub,2013-02-09 02:27:00,
2013-02-08 21:32:00,41.0,25.5,29.95,SW,228,3.0,10.0,51,0.00,,,0.29,0.0,meteohub,2013-02-09 02:32:00,
2013-02-08 21:37:00,40.8,25.5,29.95,West,278,2.0,10.0,51,0.00,,,0.29,0.0,meteohub,2013-02-09 02:37:00,
2013-02-08 21:42:00,40.5,25.5,29.96,WSW,247,1.0,9.0,52,0.00,,,0.29,0.0,meteohub,2013-02-09 02:42:00,
2013-02-08 21:47:00,40.5,26.1,29.96,WSW,256,2.0,9.0,53,0.00,,,0.29,0.0,meteohub,2013-02-09 02:47:00,
2013-02-08 21:52:00,40.3,25.9,29.96,SW,227,6.0,7.0,53,0.00,,,0.29,0.0,meteohub,2013-02-09 02:52:00,
2013-02-08 21:57:00,40.5,25.5,29.96,West,273,0.0,10.0,52,0.00,,,0.29,0.0,meteohub,2013-02-09 02:57:00,
2013-02-08 22:02:00,40.5,25.5,29.96,West,266,5.0,18.0,52,0.00,,,0.29,0.0,meteohub,2013-02-09 03:02:00,
2013-02-08 22:07:00,40.5,25.2,29.96,SW,230,6.0,18.0,51,0.00,,,0.29,0.0,meteohub,2013-02-09 03:07:00,
2013-02-08 22:12:00,40.6,24.8,29.96,WSW,258,2.0,14.0,50,0.00,,,0.29,0.0,meteohub,2013-02-09 03:12:00,
2013-02-08 22:17:00,40.6,24.8,29.96,NW,323,4.0,16.0,50,0.00,,,0.29,0.0,meteohub,2013-02-09 03:17:00,
2013-02-08 22:22:00,40.6,26.1,29.96,WNW,289,3.0,16.0,53,0.00,,,0.29,0.0,meteohub,2013-02-09 03:22:00,
2013-02-08 22:27:00,40.5,25.2,29.96,NW,311,6.0,16.0,51,0.00,,,0.29,0.0,meteohub,2013-02-09 03:27:00,
2013-02-08 22:32:00,40.3,24.4,29.96,WSW,244,5.0,11.0,50,0.00,,,0.29,0.0,meteohub,2013-02-09 03:32:00,
2013-02-08 22:37:00,40.3,25.0,29.96,SW,215,6.0,11.0,51,0.00,,,0.29,0.0,meteohub,2013-02-09 03:37:00,
2013-02-08 22:42:00,40.3,24.4,29.96,East,92,2.0,11.0,50,0.00,,,0.29,0.0,meteohub,2013-02-09 03:42:00,
2013-02-08 22:47:00,40.1,24.8,29.96,SW,234,1.0,13.0,51,0.00,,,0.29,0.0,meteohub,2013-02-09 03:47:00,
2013-02-08 22:52:00,39.9,24.6,29.97,WNW,291,1.0,13.0,51,0.00,,,0.29,0.0,meteohub,2013-02-09 03:52:00,
2013-02-08 22:57:00,39.7,24.4,29.97,WNW,293,5.0,12.0,51,0.00,,,0.29,0.0,meteohub,2013-02-09 03:57:00,
2013-02-08 23:02:00,39.6,24.3,29.97,WNW,286,4.0,13.0,51,0.00,,,0.29,0.0,meteohub,2013-02-09 04:02:00,
2013-02-08 23:07:00,39.6,24.3,29.97,WNW,288,2.0,13.0,51,0.00,,,0.29,0.0,meteohub,2013-02-09 04:07:00,
2013-02-08 23:12:00,39.6,23.9,29.98,West,276,16.0,16.0,50,0.00,,,0.29,0.0,meteohub,2013-02-09 04:12:00,
2013-02-08 23:18:00,39.6,23.9,29.98,WNW,282,7.0,19.0,50,0.00,,,0.29,0.0,meteohub,2013-02-09 04:18:00,
2013-02-08 23:24:00,39.4,23.7,29.98,WNW,297,5.0,19.0,50,0.00,,,0.29,0.0,meteohub,2013-02-09 04:24:00,
2013-02-08 23:30:00,39.4,23.7,29.98,WNW,294,1.0,14.0,50,0.00,,,0.29,0.0,meteohub,2013-02-09 04:30:00,
2013-02-08 23:37:00,39.2,23.5,29.98,West,276,2.0,14.0,50,0.00,,,0.29,0.0,meteohub,2013-02-09 04:37:00,
2013-02-08 23:42:00,39.0,23.4,29.98,NW,307,3.0,15.0,50,0.00,,,0.29,0.0,meteohub,2013-02-09 04:42:00,
2013-02-08 23:49:00,39.0,23.4,29.99,WNW,287,3.0,17.0,50,0.00,,,0.29,0.0,meteohub,2013-02-09 04:49:00,
2013-02-08 23:55:00,38.8,23.2,29.99,West,273,1.0,17.0,50,0.00,,,0.29,0.0,meteohub,2013-02-09 04:55:00,